createdAt,value
2022-12-31T00:00:47.734Z,1.85
2022-12-31T00:01:47.620Z,1.73
2022-12-31T00:02:47.790Z,1.76
2022-12-31T00:03:47.984Z,1.75
2022-12-31T00:04:47.719Z,1.68
2022-12-31T00:05:47.692Z,1.76
2022-12-31T00:06:47.674Z,1.68
2022-12-31T00:07:47.789Z,1.9
2022-12-31T00:08:47.988Z,1.88
2022-12-31T00:09:47.706Z,1.96
2022-12-31T00:10:47.732Z,1.84
2022-12-31T00:11:47.868Z,1.77
2022-12-31T00:12:47.795Z,1.86
2022-12-31T00:13:48.116Z,1.81
2022-12-31T00:14:47.779Z,1.75
2022-12-31T00:15:47.763Z,1.7
2022-12-31T00:16:47.832Z,1.68
2022-12-31T00:17:47.803Z,1.85
2022-12-31T00:18:48.886Z,1.65
2022-12-31T00:19:47.809Z,1.69
2022-12-31T00:20:47.842Z,1.78
2022-12-31T00:21:47.858Z,1.66
2022-12-31T00:22:47.855Z,1.83
2022-12-31T00:23:48.342Z,1.8
2022-12-31T00:24:47.889Z,1.98
2022-12-31T00:25:47.905Z,2.05
2022-12-31T00:26:47.909Z,1.86
2022-12-31T00:27:47.987Z,1.93
2022-12-31T00:28:48.304Z,1.95
2022-12-31T00:29:48.081Z,1.91
2022-12-31T00:30:48.017Z,1.82
2022-12-31T00:31:48.026Z,1.77
2022-12-31T00:32:47.985Z,1.78
2022-12-31T00:33:48.552Z,1.86
2022-12-31T00:34:48.178Z,1.77
2022-12-31T00:35:48.029Z,1.7
2022-12-31T00:36:48.140Z,1.69
2022-12-31T00:37:48.284Z,1.72
2022-12-31T00:38:48.807Z,1.79
2022-12-31T00:39:48.124Z,1.7
2022-12-31T00:40:48.087Z,1.81
2022-12-31T00:41:48.113Z,1.71
2022-12-31T00:42:48.137Z,1.76
2022-12-31T00:43:48.359Z,1.72
2022-12-31T00:44:48.224Z,1.71
2022-12-31T00:45:48.202Z,1.67
2022-12-31T00:46:48.213Z,1.67
2022-12-31T00:47:48.250Z,1.7
2022-12-31T00:48:48.446Z,1.71
2022-12-31T00:49:48.277Z,1.72
2022-12-31T00:50:48.317Z,1.7
2022-12-31T00:51:48.246Z,1.68
2022-12-31T00:52:48.381Z,1.75
2022-12-31T00:53:48.823Z,1.67
2022-12-31T00:54:48.324Z,1.65
2022-12-31T00:55:48.452Z,1.62
2022-12-31T00:56:48.314Z,1.64
2022-12-31T00:57:48.340Z,1.58
2022-12-31T00:58:48.651Z,1.51
2022-12-31T00:59:48.373Z,1.58
2022-12-31T01:00:48.397Z,1.64
2022-12-31T01:01:48.523Z,1.6
2022-12-31T01:02:48.522Z,1.6
2022-12-31T01:03:49.878Z,1.57
2022-12-31T01:04:48.651Z,1.67
2022-12-31T01:05:48.941Z,1.62
2022-12-31T01:06:48.428Z,1.59
2022-12-31T01:07:48.448Z,1.5
2022-12-31T01:08:48.876Z,1.46
2022-12-31T01:09:48.432Z,1.48
2022-12-31T01:10:49.218Z,1.53
2022-12-31T01:11:50.288Z,1.49
2022-12-31T01:12:48.517Z,1.48
2022-12-31T01:13:52.894Z,1.51
2022-12-31T01:14:49.520Z,1.52
2022-12-31T01:15:49.642Z,1.46
2022-12-31T01:16:51.593Z,1.45
2022-12-31T01:17:49.637Z,1.48
2022-12-31T01:18:49.605Z,1.45
2022-12-31T01:19:49.615Z,1.47
2022-12-31T01:20:49.656Z,1.47
2022-12-31T01:21:50.238Z,1.47
2022-12-31T01:22:49.616Z,1.43
2022-12-31T01:23:49.700Z,1.4
2022-12-31T01:24:49.678Z,1.42
2022-12-31T01:25:49.703Z,1.38
2022-12-31T01:26:49.691Z,1.37
2022-12-31T01:27:49.762Z,1.38
2022-12-31T01:28:49.833Z,1.36
2022-12-31T01:29:49.840Z,1.41
2022-12-31T01:30:49.829Z,1.39
2022-12-31T01:31:49.891Z,1.37
2022-12-31T01:32:49.845Z,1.43
2022-12-31T01:33:50.488Z,1.45
2022-12-31T01:34:49.767Z,1.45
2022-12-31T01:35:50.077Z,1.4
2022-12-31T01:36:49.878Z,1.42
2022-12-31T01:37:49.791Z,1.4
2022-12-31T01:38:50.287Z,1.4
2022-12-31T01:39:49.872Z,1.39
2022-12-31T01:40:49.892Z,1.47
2022-12-31T01:41:50.016Z,1.47
2022-12-31T01:42:56.207Z,1.44
2022-12-31T01:44:00.074Z,1.46
2022-12-31T01:44:56.774Z,1.45
2022-12-31T01:45:56.755Z,1.44
2022-12-31T01:46:58.778Z,1.49
2022-12-31T01:47:57.892Z,1.47
2022-12-31T01:48:58.646Z,1.52
2022-12-31T01:49:59.015Z,1.49
2022-12-31T01:50:56.848Z,1.5
2022-12-31T01:52:05.491Z,1.46
2022-12-31T01:52:59.035Z,1.47
2022-12-31T01:53:57.998Z,1.47
2022-12-31T01:55:00.337Z,1.47
2022-12-31T01:55:58.335Z,1.45
2022-12-31T01:56:57.407Z,1.49
2022-12-31T01:58:04.688Z,1.49
2022-12-31T01:59:04.140Z,1.51
2022-12-31T02:00:01.811Z,1.53
2022-12-31T02:01:02.087Z,1.51
2022-12-31T02:02:01.704Z,1.53
2022-12-31T02:03:01.928Z,1.5
2022-12-31T02:04:05.336Z,1.55
2022-12-31T02:05:05.731Z,1.65
2022-12-31T02:06:06.766Z,1.56
2022-12-31T02:07:05.032Z,1.51
2022-12-31T02:08:03.792Z,1.5
2022-12-31T02:09:03.728Z,1.48
2022-12-31T02:10:03.695Z,1.53
2022-12-31T02:12:06.065Z,1.47
2022-12-31T02:13:05.675Z,1.47
2022-12-31T02:14:13.389Z,1.48
2022-12-31T02:15:10.581Z,1.48
2022-12-31T02:16:16.504Z,1.53
2022-12-31T02:31:56.120Z,1.53
2022-12-31T02:32:57.260Z,1.49
2022-12-31T02:33:58.180Z,1.52
2022-12-31T02:34:57.040Z,1.51
2022-12-31T02:37:01.184Z,1.55
2022-12-31T02:38:59.317Z,1.49
2022-12-31T02:39:59.136Z,1.49
2022-12-31T02:40:59.249Z,1.46
2022-12-31T02:41:59.936Z,1.44
2022-12-31T02:42:58.898Z,1.37
2022-12-31T02:43:58.860Z,1.46
2022-12-31T02:44:58.870Z,1.44
2022-12-31T02:47:14.394Z,1.39
2022-12-31T03:00:31.188Z,1.35
2022-12-31T03:02:33.408Z,1.4
2022-12-31T03:03:32.823Z,1.36
2022-12-31T03:04:33.372Z,1.42
2022-12-31T03:05:34.330Z,1.34
2022-12-31T03:06:32.571Z,1.34
2022-12-31T03:07:32.787Z,1.36
2022-12-31T03:08:32.436Z,1.3
2022-12-31T03:09:32.585Z,1.25
2022-12-31T03:10:32.534Z,1.37
2022-12-31T03:11:32.513Z,1.3
2022-12-31T03:12:33.970Z,1.26
2022-12-31T03:13:32.503Z,1.21
2022-12-31T03:14:32.587Z,1.2
2022-12-31T03:15:33.510Z,1.16
2022-12-31T03:16:32.600Z,1.14
2022-12-31T03:17:33.143Z,1.11
2022-12-31T03:18:32.603Z,1.1
2022-12-31T03:19:32.596Z,1.06
2022-12-31T03:20:34.352Z,1.1
2022-12-31T03:21:32.619Z,1.08
2022-12-31T03:22:33.080Z,1.03
2022-12-31T03:24:36.248Z,1.02
2022-12-31T03:25:36.366Z,1.04
2022-12-31T03:26:36.287Z,1.02
2022-12-31T03:27:36.385Z,1.03
2022-12-31T03:28:36.750Z,0.97
2022-12-31T03:29:36.297Z,0.98
2022-12-31T03:30:37.763Z,0.96
2022-12-31T03:31:36.361Z,0.94
2022-12-31T03:32:36.446Z,0.96
2022-12-31T03:33:37.370Z,0.99
2022-12-31T03:34:36.372Z,0.93
2022-12-31T03:35:37.897Z,0.92
2022-12-31T03:36:36.416Z,0.89
2022-12-31T03:37:36.434Z,0.9
2022-12-31T03:38:36.803Z,0.88
2022-12-31T03:39:36.437Z,0.84
2022-12-31T03:40:40.730Z,0.84
2022-12-31T03:41:37.001Z,0.84
2022-12-31T03:42:36.991Z,0.88
2022-12-31T03:43:37.048Z,0.96
2022-12-31T03:44:37.008Z,0.92
2022-12-31T03:45:37.269Z,0.87
2022-12-31T03:46:37.198Z,0.85
2022-12-31T03:47:37.096Z,0.83
2022-12-31T03:48:37.106Z,0.83
2022-12-31T03:49:37.118Z,0.85
2022-12-31T03:50:37.127Z,0.83
2022-12-31T03:51:37.197Z,0.82
2022-12-31T03:52:37.537Z,0.81
2022-12-31T03:53:37.177Z,0.85
2022-12-31T03:54:37.189Z,0.85
2022-12-31T03:55:37.239Z,0.79
2022-12-31T03:56:37.272Z,0.75
2022-12-31T03:57:37.642Z,0.72
2022-12-31T03:58:37.271Z,0.73
2022-12-31T03:59:37.275Z,0.74
2022-12-31T04:00:37.299Z,0.74
2022-12-31T04:01:37.417Z,0.79
2022-12-31T04:02:37.599Z,0.76
2022-12-31T04:03:37.321Z,0.7
2022-12-31T04:04:37.319Z,0.68
2022-12-31T04:05:37.449Z,0.67
2022-12-31T04:06:37.337Z,0.7
2022-12-31T04:07:37.386Z,0.69
2022-12-31T04:08:37.379Z,0.69
2022-12-31T04:09:37.419Z,0.62
2022-12-31T04:10:37.425Z,0.76
2022-12-31T04:11:37.441Z,0.66
2022-12-31T04:12:37.498Z,0.62
2022-12-31T04:13:37.471Z,0.63
2022-12-31T04:14:37.567Z,0.64
2022-12-31T04:15:37.498Z,0.61
2022-12-31T04:16:37.783Z,0.73
2022-12-31T04:17:37.570Z,0.71
2022-12-31T04:18:37.572Z,0.71
2022-12-31T04:19:37.554Z,0.64
2022-12-31T04:20:37.584Z,0.65
2022-12-31T04:21:37.595Z,0.64
2022-12-31T04:22:37.711Z,0.63
2022-12-31T04:23:37.650Z,0.6
2022-12-31T04:24:37.643Z,0.62
2022-12-31T04:25:37.681Z,0.64
2022-12-31T04:26:37.977Z,0.65
2022-12-31T04:27:38.723Z,0.73
2022-12-31T04:28:37.723Z,0.7
2022-12-31T04:29:37.736Z,0.69
2022-12-31T04:30:37.781Z,0.69
2022-12-31T04:31:37.853Z,0.75
2022-12-31T04:32:37.775Z,0.7
2022-12-31T04:33:37.967Z,0.68
2022-12-31T04:34:37.790Z,0.71
2022-12-31T04:35:37.828Z,0.78
2022-12-31T04:36:37.819Z,0.78
2022-12-31T04:37:37.917Z,0.72
2022-12-31T04:38:37.893Z,0.69
2022-12-31T04:39:37.880Z,0.69
2022-12-31T04:40:37.869Z,0.79
2022-12-31T04:41:37.906Z,0.75
2022-12-31T04:42:38.270Z,0.73
2022-12-31T04:43:37.979Z,0.78
2022-12-31T04:44:37.933Z,0.74
2022-12-31T04:45:38.030Z,0.78
2022-12-31T04:46:38.024Z,0.76
2022-12-31T04:47:37.993Z,0.76
2022-12-31T04:48:38.337Z,0.75
2022-12-31T04:49:38.080Z,0.73
2022-12-31T04:50:38.062Z,0.77
2022-12-31T04:51:38.099Z,0.82
2022-12-31T04:52:42.651Z,0.83
2022-12-31T04:53:39.455Z,0.77
2022-12-31T04:54:39.452Z,0.75
2022-12-31T04:55:40.710Z,0.72
2022-12-31T04:56:39.497Z,0.75
2022-12-31T04:57:41.113Z,0.73
2022-12-31T04:58:39.942Z,0.69
2022-12-31T04:59:39.544Z,0.82
2022-12-31T05:00:39.564Z,0.83
2022-12-31T05:01:39.735Z,0.81
2022-12-31T05:02:40.080Z,0.77
2022-12-31T05:03:40.202Z,0.8
2022-12-31T05:04:39.606Z,0.89
2022-12-31T05:05:39.743Z,0.84
2022-12-31T05:06:39.602Z,0.89
2022-12-31T05:07:39.632Z,0.82
2022-12-31T05:08:39.690Z,0.77
2022-12-31T05:09:39.678Z,0.8
2022-12-31T05:11:43.240Z,0.78
2022-12-31T05:12:43.277Z,0.77
2022-12-31T05:13:43.366Z,0.8
2022-12-31T05:14:43.335Z,0.82
2022-12-31T05:15:43.296Z,0.84
2022-12-31T05:16:43.383Z,0.81
2022-12-31T05:17:43.377Z,0.85
2022-12-31T05:18:43.365Z,0.8
2022-12-31T05:19:43.408Z,0.8
2022-12-31T05:20:43.394Z,0.79
2022-12-31T05:21:43.400Z,0.86
2022-12-31T05:22:43.433Z,0.85
2022-12-31T05:23:43.491Z,0.79
2022-12-31T05:24:43.562Z,0.78
2022-12-31T05:25:44.321Z,0.82
2022-12-31T05:26:43.530Z,0.83
2022-12-31T05:27:43.677Z,0.85
2022-12-31T05:28:43.716Z,0.81
2022-12-31T05:29:43.564Z,0.83
2022-12-31T05:30:43.654Z,0.76
2022-12-31T05:31:43.576Z,0.82
2022-12-31T05:32:43.595Z,0.83
2022-12-31T05:33:43.588Z,0.75
2022-12-31T05:34:43.609Z,0.74
2022-12-31T05:35:43.681Z,0.76
2022-12-31T05:36:43.623Z,0.69
2022-12-31T05:37:43.731Z,0.74
2022-12-31T05:38:43.707Z,0.73
2022-12-31T05:39:43.690Z,0.74
2022-12-31T05:40:43.760Z,0.8
2022-12-31T05:41:43.734Z,0.73
2022-12-31T05:42:44.161Z,0.7
2022-12-31T05:43:43.785Z,0.78
2022-12-31T05:44:43.859Z,0.73
2022-12-31T05:45:43.879Z,0.67
2022-12-31T05:46:43.792Z,0.68
2022-12-31T05:47:43.868Z,0.66
2022-12-31T05:48:43.836Z,0.7
2022-12-31T05:49:43.862Z,0.73
2022-12-31T05:50:44.436Z,0.72
2022-12-31T05:51:44.386Z,0.74
2022-12-31T05:52:47.568Z,0.72
2022-12-31T05:53:44.373Z,0.69
2022-12-31T05:54:44.420Z,0.68
2022-12-31T05:55:47.781Z,0.65
2022-12-31T05:56:44.465Z,0.69
2022-12-31T05:57:44.512Z,0.67
2022-12-31T05:58:44.494Z,0.72
2022-12-31T05:59:44.511Z,0.69
2022-12-31T06:00:44.892Z,0.7
2022-12-31T06:01:44.564Z,0.71
2022-12-31T06:02:44.596Z,0.67
2022-12-31T06:03:44.687Z,0.67
2022-12-31T06:04:44.575Z,0.69
2022-12-31T06:05:44.672Z,0.69
2022-12-31T06:06:44.679Z,0.68
2022-12-31T06:07:45.268Z,0.72
2022-12-31T06:08:44.640Z,0.7
2022-12-31T06:09:44.670Z,0.72
2022-12-31T06:10:45.113Z,0.66
2022-12-31T06:11:45.746Z,0.69
2022-12-31T06:12:45.172Z,0.78
2022-12-31T06:13:45.221Z,0.73
2022-12-31T06:14:45.961Z,0.68
2022-12-31T06:15:45.283Z,0.63
2022-12-31T06:16:45.272Z,0.64
2022-12-31T06:17:45.301Z,0.65
2022-12-31T06:18:47.223Z,0.62
2022-12-31T06:19:46.353Z,0.65
2022-12-31T06:20:45.383Z,0.66
2022-12-31T06:21:45.332Z,0.63
2022-12-31T06:22:45.389Z,0.6
2022-12-31T06:23:45.795Z,0.63
2022-12-31T06:24:45.369Z,0.62
2022-12-31T06:25:45.421Z,0.63
2022-12-31T06:26:45.364Z,0.63
2022-12-31T06:27:45.466Z,0.62
2022-12-31T06:28:45.420Z,0.66
2022-12-31T06:29:45.445Z,0.64
2022-12-31T06:30:45.498Z,0.75
2022-12-31T06:31:45.437Z,0.68
2022-12-31T06:32:45.552Z,0.65
2022-12-31T06:33:45.492Z,0.69
2022-12-31T06:34:45.508Z,0.66
2022-12-31T06:35:45.547Z,0.66
2022-12-31T06:36:45.565Z,0.69
2022-12-31T06:37:45.538Z,0.68
2022-12-31T06:38:45.637Z,0.65
2022-12-31T06:39:45.593Z,0.66
2022-12-31T06:40:45.605Z,0.67
2022-12-31T06:41:45.624Z,0.7
2022-12-31T06:42:45.660Z,0.67
2022-12-31T06:43:45.813Z,0.69
2022-12-31T06:44:45.662Z,0.72
2022-12-31T06:45:45.764Z,0.8
2022-12-31T06:46:45.833Z,0.73
2022-12-31T06:47:45.760Z,0.8
2022-12-31T06:48:45.996Z,0.79
2022-12-31T06:49:45.799Z,0.86
2022-12-31T06:50:45.751Z,0.75
2022-12-31T06:51:45.803Z,0.7
2022-12-31T06:52:45.799Z,0.76
2022-12-31T06:53:47.297Z,0.74
2022-12-31T06:54:46.122Z,0.73
2022-12-31T06:55:47.485Z,0.71
2022-12-31T06:56:46.327Z,0.73
2022-12-31T06:57:46.222Z,0.69
2022-12-31T06:58:46.330Z,0.8
2022-12-31T06:59:46.522Z,0.82
2022-12-31T07:06:06.560Z,0.76
2022-12-31T07:09:18.498Z,0.72
2022-12-31T07:10:25.592Z,0.72
2022-12-31T07:20:34.037Z,0.8
2022-12-31T07:21:35.576Z,0.83
2022-12-31T07:22:33.896Z,0.78
2022-12-31T07:23:33.947Z,0.82
2022-12-31T07:24:34.044Z,0.82
2022-12-31T07:25:35.289Z,0.9
2022-12-31T07:32:01.222Z,0.87
2022-12-31T07:34:00.313Z,0.8
2022-12-31T07:42:24.005Z,0.97
2022-12-31T07:45:29.746Z,0.89
2022-12-31T07:46:30.963Z,0.86
2022-12-31T07:47:28.250Z,0.87
2022-12-31T07:48:28.127Z,0.87
2022-12-31T07:49:28.911Z,0.9
2022-12-31T07:50:27.651Z,0.9
2022-12-31T07:51:27.735Z,0.87
2022-12-31T07:52:27.818Z,0.89
2022-12-31T07:53:27.758Z,0.91
2022-12-31T07:54:27.453Z,0.9
2022-12-31T07:55:28.162Z,0.9
2022-12-31T07:56:27.516Z,0.92
2022-12-31T07:57:31.663Z,0.95
2022-12-31T08:00:35.532Z,1.01
2022-12-31T08:03:54.134Z,1.06
2022-12-31T08:09:06.173Z,1.21
2022-12-31T08:10:15.661Z,1.27
2022-12-31T08:12:07.510Z,1.25
2022-12-31T08:13:09.056Z,1.23
2022-12-31T08:14:09.375Z,1.16
2022-12-31T08:15:15.731Z,1.16
2022-12-31T08:16:10.453Z,1.11
2022-12-31T08:17:10.028Z,1.15
2022-12-31T08:18:08.261Z,1.11
2022-12-31T08:19:16.260Z,1.14
2022-12-31T08:20:11.840Z,1.12
2022-12-31T08:21:22.255Z,1.22
2022-12-31T08:23:24.377Z,1.22
2022-12-31T08:24:26.869Z,1.25
2022-12-31T08:25:25.815Z,1.25
2022-12-31T08:26:34.834Z,1.29
2022-12-31T08:32:48.399Z,1.28
2022-12-31T08:49:25.069Z,1.38
2022-12-31T08:50:23.423Z,1.32
2022-12-31T08:51:23.979Z,1.32
2022-12-31T08:52:24.319Z,1.32
2022-12-31T08:53:23.311Z,1.35
2022-12-31T08:54:23.254Z,1.36
2022-12-31T08:55:23.298Z,1.34
2022-12-31T08:58:38.335Z,1.36
2022-12-31T09:00:34.904Z,1.38
2022-12-31T09:01:45.536Z,1.41
2022-12-31T09:12:10.454Z,1.4
2022-12-31T09:16:19.029Z,1.46
2022-12-31T09:18:17.866Z,1.35
2022-12-31T09:19:17.722Z,1.43
2022-12-31T09:20:26.111Z,1.54
2022-12-31T09:21:18.244Z,1.59
2022-12-31T09:22:18.220Z,1.6
2022-12-31T09:23:18.494Z,1.61
2022-12-31T09:24:18.220Z,1.61
2022-12-31T09:25:19.017Z,1.68
2022-12-31T09:27:27.440Z,1.67
2022-12-31T09:29:33.703Z,1.72
2022-12-31T09:30:26.242Z,1.72
2022-12-31T09:31:31.619Z,1.67
2022-12-31T09:37:47.212Z,1.67
2022-12-31T09:39:47.727Z,1.68
2022-12-31T09:55:27.514Z,1.82
2022-12-31T09:59:30.358Z,1.72
2022-12-31T10:00:33.518Z,1.72
2022-12-31T10:19:28.986Z,1.77
2022-12-31T10:20:37.765Z,1.72
2022-12-31T10:21:37.678Z,1.77
2022-12-31T10:24:45.020Z,1.77
2022-12-31T10:37:16.662Z,1.73
2022-12-31T10:52:15.179Z,1.84
2022-12-31T11:00:21.704Z,1.82
2022-12-31T11:15:04.237Z,1.71
2022-12-31T11:21:16.631Z,1.67
2022-12-31T11:25:19.045Z,1.78
2022-12-31T11:37:50.787Z,1.75
2022-12-31T11:38:51.024Z,1.72
2022-12-31T11:43:00.505Z,1.74
2022-12-31T11:45:12.512Z,1.73
2022-12-31T11:48:34.740Z,1.86
2022-12-31T11:49:18.531Z,1.8
2022-12-31T11:51:33.381Z,1.76
2022-12-31T11:53:35.724Z,1.81
2022-12-31T11:55:42.902Z,1.77
2022-12-31T11:56:37.379Z,1.77
2022-12-31T11:57:38.464Z,1.78
2022-12-31T11:58:35.335Z,1.77
2022-12-31T11:59:35.178Z,1.74
2022-12-31T12:00:35.672Z,1.78
2022-12-31T12:02:42.375Z,1.86
2022-12-31T12:03:39.129Z,1.76
2022-12-31T12:04:38.669Z,1.75
2022-12-31T12:05:39.557Z,1.85
2022-12-31T12:06:40.228Z,1.84
2022-12-31T12:07:38.776Z,1.76
2022-12-31T12:08:38.931Z,1.83
2022-12-31T12:09:38.847Z,1.8
2022-12-31T12:10:44.067Z,1.8
2022-12-31T12:11:40.704Z,1.77
2022-12-31T12:12:41.092Z,1.83
2022-12-31T12:13:40.449Z,1.81
2022-12-31T12:14:41.841Z,1.77
2022-12-31T12:15:42.220Z,1.76
2022-12-31T12:16:40.497Z,1.69
2022-12-31T12:17:40.396Z,1.79
2022-12-31T12:18:48.336Z,1.81
2022-12-31T12:19:46.468Z,1.82
2022-12-31T12:20:46.079Z,1.8
2022-12-31T12:21:45.598Z,1.76
2022-12-31T12:22:51.733Z,1.68
2022-12-31T12:23:54.780Z,1.76
2022-12-31T12:24:54.699Z,1.8
2022-12-31T12:25:51.306Z,1.72
2022-12-31T12:26:51.459Z,1.72
2022-12-31T12:27:51.529Z,1.66
2022-12-31T12:28:51.070Z,1.67
2022-12-31T12:29:51.124Z,1.65
2022-12-31T12:30:55.952Z,1.67
2022-12-31T12:31:59.572Z,1.58
2022-12-31T12:32:57.462Z,1.71
2022-12-31T12:33:55.838Z,1.67
2022-12-31T12:34:55.834Z,1.67
2022-12-31T12:37:01.167Z,1.7
2022-12-31T12:38:04.944Z,1.67
2022-12-31T12:39:05.243Z,1.7
2022-12-31T12:40:02.863Z,1.67
2022-12-31T12:41:04.023Z,1.67
2022-12-31T12:42:07.455Z,1.65
2022-12-31T12:43:03.673Z,1.67
2022-12-31T12:44:07.842Z,1.64
2022-12-31T12:46:07.196Z,1.63
2022-12-31T12:47:06.526Z,1.53
2022-12-31T12:48:09.019Z,1.62
2022-12-31T12:49:05.484Z,1.66
2022-12-31T12:50:11.019Z,1.64
2022-12-31T13:03:41.729Z,1.61
2022-12-31T13:09:56.004Z,1.69
2022-12-31T13:22:22.779Z,1.6
2022-12-31T13:26:31.272Z,1.72
2022-12-31T13:27:29.840Z,1.71
2022-12-31T13:28:27.678Z,1.81
2022-12-31T13:29:30.388Z,1.66
2022-12-31T13:31:31.360Z,1.71
2022-12-31T13:33:37.348Z,1.64
2022-12-31T13:34:34.964Z,1.65
2022-12-31T13:35:36.327Z,1.64
2022-12-31T13:36:37.665Z,1.69
2022-12-31T13:37:36.629Z,1.8
2022-12-31T13:39:41.088Z,1.76
2022-12-31T13:43:53.394Z,1.72
2022-12-31T13:44:53.483Z,1.7
2022-12-31T13:45:56.886Z,1.74
2022-12-31T13:47:02.180Z,1.8
2022-12-31T13:47:55.566Z,1.72
2022-12-31T13:48:56.065Z,1.72
2022-12-31T13:49:59.115Z,1.7
2022-12-31T13:51:01.206Z,1.73
2022-12-31T13:53:03.046Z,1.63
2022-12-31T13:57:16.761Z,1.77
2022-12-31T14:02:29.219Z,1.78
2022-12-31T14:07:45.340Z,1.69
2022-12-31T14:08:36.987Z,1.81
2022-12-31T14:09:37.091Z,1.77
2022-12-31T14:20:06.203Z,1.72
2022-12-31T14:21:05.663Z,1.68
2022-12-31T14:22:04.775Z,1.66
2022-12-31T14:25:17.805Z,1.79
2022-12-31T14:26:15.816Z,1.79
2022-12-31T14:27:17.109Z,1.77
2022-12-31T14:28:17.923Z,1.87
2022-12-31T14:30:20.300Z,1.76
2022-12-31T14:34:29.146Z,1.83
2022-12-31T14:41:44.605Z,1.79
2022-12-31T14:44:56.342Z,1.79
2022-12-31T14:47:59.978Z,1.83
2022-12-31T14:50:05.591Z,1.84
2022-12-31T14:51:02.988Z,1.83
2022-12-31T14:53:08.749Z,1.84
2022-12-31T14:54:04.990Z,1.79
2022-12-31T14:59:28.060Z,1.9
2022-12-31T15:00:27.260Z,1.84
2022-12-31T15:01:24.063Z,1.78
2022-12-31T15:02:27.809Z,1.79
2022-12-31T15:05:32.245Z,1.79
2022-12-31T15:12:56.932Z,1.79
2022-12-31T15:16:11.331Z,1.79
2022-12-31T15:24:21.097Z,1.77
2022-12-31T15:26:24.570Z,1.8
2022-12-31T15:28:35.152Z,1.82
2022-12-31T15:30:32.704Z,1.82
2022-12-31T15:31:36.503Z,1.88
2022-12-31T15:32:41.432Z,1.75
2022-12-31T15:33:39.250Z,1.87
2022-12-31T15:34:38.190Z,1.88
2022-12-31T15:35:48.801Z,1.79
2022-12-31T15:36:50.860Z,1.82
2022-12-31T15:37:42.462Z,1.86
2022-12-31T15:38:43.188Z,1.75
2022-12-31T15:39:43.038Z,1.82
2022-12-31T15:40:49.720Z,1.88
2022-12-31T15:42:35.684Z,1.83
2022-12-31T15:42:52.770Z,1.76
2022-12-31T15:44:59.223Z,1.85
2022-12-31T15:45:56.301Z,1.82
2022-12-31T15:48:02.061Z,1.82
2022-12-31T15:49:10.290Z,1.92
2022-12-31T15:50:15.179Z,1.99
2022-12-31T15:51:14.679Z,1.9
2022-12-31T15:52:18.019Z,1.81
2022-12-31T15:53:26.262Z,1.8
2022-12-31T15:54:23.420Z,1.9
2022-12-31T15:57:30.665Z,1.87
2022-12-31T15:58:30.168Z,1.96
2022-12-31T15:59:27.382Z,1.99
2022-12-31T16:00:29.752Z,1.88
2022-12-31T16:02:28.892Z,2.01
2022-12-31T16:03:29.292Z,1.93
2022-12-31T16:04:30.237Z,1.96
2022-12-31T16:05:28.334Z,1.89
2022-12-31T16:06:29.949Z,1.9
2022-12-31T16:07:28.679Z,1.82
2022-12-31T16:08:29.792Z,1.91
2022-12-31T16:09:32.776Z,1.91
2022-12-31T16:10:30.438Z,1.81
2022-12-31T16:11:29.393Z,1.89
2022-12-31T16:13:33.685Z,1.83
2022-12-31T16:14:34.935Z,1.81
2022-12-31T16:15:32.901Z,1.85
2022-12-31T16:16:32.081Z,1.88
2022-12-31T16:17:36.278Z,1.89
2022-12-31T16:18:36.833Z,1.89
2022-12-31T16:20:42.765Z,1.95
2022-12-31T16:21:39.572Z,1.94
2022-12-31T16:22:39.770Z,1.83
2022-12-31T16:23:42.472Z,1.86
2022-12-31T16:25:02.883Z,1.84
2022-12-31T16:25:44.627Z,1.86
2022-12-31T16:27:42.643Z,1.94
2022-12-31T16:28:47.407Z,1.92
2022-12-31T16:29:49.327Z,1.93
2022-12-31T16:31:53.406Z,1.98
2022-12-31T16:32:53.783Z,1.9
2022-12-31T16:34:02.069Z,1.94
2022-12-31T16:34:53.825Z,1.89
2022-12-31T16:35:55.463Z,1.87
2022-12-31T16:36:54.967Z,1.83
2022-12-31T16:38:03.777Z,1.94
2022-12-31T16:43:00.120Z,1.89
2022-12-31T16:43:59.239Z,1.84
2022-12-31T16:46:16.075Z,1.88
2022-12-31T16:47:03.418Z,1.92
2022-12-31T16:48:16.578Z,1.86
2022-12-31T16:49:14.619Z,1.93
2022-12-31T16:50:16.264Z,1.96
2022-12-31T16:51:13.990Z,1.89
2022-12-31T16:53:15.697Z,2.02
2022-12-31T16:56:23.118Z,1.92
2022-12-31T16:57:21.788Z,1.9
2022-12-31T16:58:21.131Z,1.95
2022-12-31T17:00:21.251Z,2.01
2022-12-31T17:01:23.385Z,1.86
2022-12-31T17:02:22.995Z,1.81
2022-12-31T17:03:24.737Z,1.95
2022-12-31T17:04:22.783Z,1.95
2022-12-31T17:05:25.269Z,1.97
2022-12-31T17:06:21.858Z,1.99
2022-12-31T17:07:25.833Z,1.94
2022-12-31T17:08:26.521Z,1.92
2022-12-31T17:09:30.504Z,2.05
2022-12-31T17:10:32.975Z,2
2022-12-31T17:11:36.765Z,1.98
2022-12-31T17:12:46.799Z,1.92
2022-12-31T17:13:35.570Z,1.89
2022-12-31T17:15:40.265Z,1.97
2022-12-31T17:16:44.224Z,1.95
2022-12-31T17:17:40.575Z,1.84
2022-12-31T17:18:43.664Z,1.8
2022-12-31T17:19:42.543Z,1.87
2022-12-31T17:20:40.569Z,1.87
2022-12-31T17:21:46.649Z,1.89
2022-12-31T17:22:43.985Z,1.86
2022-12-31T17:23:44.104Z,1.8
2022-12-31T17:24:43.071Z,1.85
2022-12-31T17:25:42.935Z,1.9
2022-12-31T17:26:42.962Z,1.9
2022-12-31T17:27:51.509Z,1.85
2022-12-31T17:28:49.650Z,1.9
2022-12-31T17:29:47.775Z,1.89
2022-12-31T17:30:47.908Z,1.92
2022-12-31T17:32:51.223Z,1.82
2022-12-31T17:33:53.686Z,1.8
2022-12-31T17:34:51.200Z,1.81
2022-12-31T17:35:54.963Z,1.86
2022-12-31T17:36:57.146Z,1.85
2022-12-31T17:37:53.918Z,1.79
2022-12-31T17:38:54.106Z,1.86
2022-12-31T17:39:55.367Z,1.9
2022-12-31T17:40:55.190Z,1.93
2022-12-31T17:41:56.132Z,1.91
2022-12-31T17:42:55.303Z,1.88
2022-12-31T17:43:55.026Z,1.85
2022-12-31T17:44:55.655Z,1.86
2022-12-31T17:45:54.444Z,2.02
2022-12-31T17:46:54.210Z,1.89
2022-12-31T17:47:57.361Z,1.95
2022-12-31T17:48:57.614Z,1.98
2022-12-31T17:49:54.381Z,1.97
2022-12-31T17:50:58.865Z,1.92
2022-12-31T17:51:55.652Z,1.91
2022-12-31T17:52:57.134Z,1.93
2022-12-31T17:53:55.669Z,1.79
2022-12-31T17:54:55.687Z,1.91
2022-12-31T17:55:57.196Z,1.88
2022-12-31T17:56:55.923Z,1.89
2022-12-31T17:57:56.501Z,1.82
2022-12-31T17:58:55.742Z,1.88
2022-12-31T17:59:57.519Z,1.87
2022-12-31T18:00:56.164Z,2.02
2022-12-31T18:02:00.968Z,1.89
2022-12-31T18:02:57.821Z,1.98
2022-12-31T18:03:57.859Z,1.86
2022-12-31T18:04:57.914Z,1.89
2022-12-31T18:05:57.891Z,1.79
2022-12-31T18:06:57.845Z,1.82
2022-12-31T18:07:57.848Z,1.77
2022-12-31T18:08:57.912Z,1.75
2022-12-31T18:09:57.917Z,1.87
2022-12-31T18:10:57.895Z,1.9
2022-12-31T18:12:01.697Z,1.97
2022-12-31T18:13:00.118Z,1.9
2022-12-31T18:13:58.995Z,2.06
2022-12-31T18:14:58.856Z,1.99
2022-12-31T18:15:58.829Z,1.9
2022-12-31T18:16:58.815Z,1.88
2022-12-31T18:17:59.319Z,1.9
2022-12-31T18:18:59.935Z,1.97
2022-12-31T18:20:06.722Z,1.89
2022-12-31T18:21:05.488Z,1.88
2022-12-31T18:22:03.723Z,1.94
2022-12-31T18:23:03.817Z,2.03
2022-12-31T18:25:04.120Z,1.95
2022-12-31T18:26:03.953Z,1.85
2022-12-31T18:27:03.824Z,2.01
2022-12-31T18:28:08.329Z,1.94
2022-12-31T18:29:15.601Z,1.88
2022-12-31T18:30:08.954Z,1.95
2022-12-31T18:31:12.443Z,2
2022-12-31T18:32:19.592Z,1.87
2022-12-31T18:33:12.405Z,1.9
2022-12-31T18:34:12.620Z,2.01
2022-12-31T18:36:06.933Z,2.09
2022-12-31T18:36:17.120Z,2.02
2022-12-31T18:37:21.495Z,2
2022-12-31T18:38:19.251Z,1.97
2022-12-31T18:39:18.374Z,1.95
2022-12-31T18:40:18.409Z,1.93
2022-12-31T18:41:20.206Z,1.87
2022-12-31T18:42:18.979Z,1.94
2022-12-31T18:43:19.064Z,1.96
2022-12-31T18:44:18.481Z,1.91
2022-12-31T18:45:19.463Z,2.03
2022-12-31T18:46:19.961Z,2
2022-12-31T18:47:19.849Z,2.15
2022-12-31T18:48:18.896Z,2.04
2022-12-31T18:49:18.541Z,1.94
2022-12-31T18:50:18.574Z,1.92
2022-12-31T18:51:20.105Z,1.91
2022-12-31T18:52:20.648Z,1.98
2022-12-31T18:53:23.019Z,1.94
2022-12-31T18:54:19.766Z,2.01
2022-12-31T18:56:21.185Z,1.96
2022-12-31T18:57:20.616Z,2.06
2022-12-31T18:58:20.733Z,2.15
2022-12-31T18:59:20.582Z,2.15
2022-12-31T19:00:20.713Z,2.11
2022-12-31T19:02:22.614Z,1.93
2022-12-31T19:03:24.219Z,1.96
2022-12-31T19:04:27.682Z,2.03
2022-12-31T19:05:28.652Z,2.07
2022-12-31T19:06:25.139Z,2.05
2022-12-31T19:07:25.430Z,2.05
2022-12-31T19:08:25.460Z,2
2022-12-31T19:10:26.811Z,1.99
2022-12-31T19:11:26.666Z,2.09
2022-12-31T19:12:26.680Z,2.07
2022-12-31T19:13:26.775Z,1.94
2022-12-31T19:14:26.976Z,2.03
2022-12-31T19:15:30.062Z,2.13
2022-12-31T19:16:26.789Z,2.04
2022-12-31T19:17:26.784Z,1.96
2022-12-31T19:18:26.829Z,2.11
2022-12-31T19:19:26.783Z,2.1
2022-12-31T19:20:27.392Z,2.13
2022-12-31T19:21:26.828Z,2
2022-12-31T19:22:26.851Z,2.01
2022-12-31T19:23:27.032Z,2.05
2022-12-31T19:24:27.791Z,2.18
2022-12-31T19:25:28.354Z,2.11
2022-12-31T19:26:26.900Z,2.08
2022-12-31T19:27:26.918Z,2.08
2022-12-31T19:28:27.645Z,2.04
2022-12-31T19:29:27.469Z,2.19
2022-12-31T19:30:28.727Z,2.13
2022-12-31T19:31:27.081Z,2.2
2022-12-31T19:32:27.039Z,2.15
2022-12-31T19:33:27.004Z,2.2
2022-12-31T19:34:27.182Z,2.13
2022-12-31T19:35:27.349Z,2.07
2022-12-31T19:36:27.075Z,2.19
2022-12-31T19:37:27.123Z,2.17